Time;durP1;ratioP1;P1;durP2;ratioP2;P2;SDS_P1;SDS_P2;PMS_P1;PMS_P2;Temp;Humidity;BMP_temperature;BMP_pressure;BME280_temperature;BME280_humidity;BME280_pressure;Samples;Min_cycle;Max_cycle;Signal;HPM_P1;HPM_P2
2022/06/07 00:01:18;;;;;;;4.00;3.70;;;17.60;79.00;;;;;;5075277;28;20471;-66
2022/06/07 00:03:46;;;;;;;4.37;4.03;;;17.60;79.20;;;;;;5075271;28;20452;-66
2022/06/07 00:06:12;;;;;;;4.47;4.17;;;17.50;79.30;;;;;;5075216;28;20449;-66
2022/06/07 00:08:41;;;;;;;5.57;3.73;;;17.50;79.50;;;;;;5074850;28;20535;-66
2022/06/07 00:11:08;;;;;;;3.27;3.07;;;17.50;79.70;;;;;;5074695;28;20890;-66
2022/06/07 00:13:35;;;;;;;4.90;4.43;;;17.40;79.80;;;;;;5075208;28;20832;-66
2022/06/07 00:16:01;;;;;;;4.50;4.10;;;17.40;80.00;;;;;;5074666;28;20817;-66
2022/06/07 00:18:28;;;;;;;4.00;3.70;;;17.40;80.20;;;;;;5074933;28;20455;-66
2022/06/07 00:20:55;;;;;;;4.20;3.80;;;17.40;80.20;;;;;;5074920;28;20461;-66
2022/06/07 00:23:22;;;;;;;4.70;4.00;;;17.30;80.20;;;;;;5074921;28;20444;-66
2022/06/07 00:25:54;;;;;;;5.07;3.47;;;17.30;80.10;;;;;;5075118;28;20440;-66
2022/06/07 00:28:21;;;;;;;3.73;3.43;;;17.30;80.20;;;;;;5074869;28;20429;-66
2022/06/07 00:30:49;;;;;;;4.20;3.83;;;17.30;80.30;;;;;;5074563;28;20464;-66
2022/06/07 00:33:16;;;;;;;4.13;3.63;;;17.30;80.40;;;;;;5074566;28;20444;-66
2022/06/07 00:35:43;;;;;;;4.10;3.90;;;17.30;80.20;;;;;;5074600;28;20486;-66
2022/06/07 00:38:10;;;;;;;4.00;3.70;;;17.30;80.10;;;;;;5074597;28;20473;-66
2022/06/07 00:40:37;;;;;;;4.20;3.83;;;17.30;80.10;;;;;;5074534;28;20522;-66
2022/06/07 00:43:06;;;;;;;4.13;3.77;;;17.20;80.10;;;;;;5073340;28;20450;-66
2022/06/07 00:45:33;;;;;;;3.73;3.43;;;17.20;80.00;;;;;;5074434;28;20441;-66
2022/06/07 00:48:00;;;;;;;4.50;4.10;;;17.20;79.90;;;;;;5074457;28;20449;-66
2022/06/07 00:50:32;;;;;;;6.33;4.20;;;17.20;79.90;;;;;;5074336;28;20468;-66
2022/06/07 00:53:00;;;;;;;8.10;3.23;;;17.10;80.10;;;;;;5074691;28;20435;-67
2022/06/07 00:55:27;;;;;;;4.70;3.80;;;17.10;80.30;;;;;;5074257;28;20461;-67
2022/06/07 00:57:56;;;;;;;12.40;3.50;;;17.10;80.40;;;;;;5074257;28;20455;-67
2022/06/07 01:00:25;;;;;;;3.93;3.53;;;17.00;80.60;;;;;;5074229;28;20468;-68
2022/06/07 01:02:53;;;;;;;5.00;3.80;;;16.90;80.80;;;;;;5074024;28;20972;-67
2022/06/07 01:05:20;;;;;;;5.40;3.57;;;17.00;81.10;;;;;;5074245;28;20437;-67
2022/06/07 01:10:46;;;;;;;12.00;4.30;;;16.80;81.20;;;;;;5073858;28;20444;-67
2022/06/07 01:13:16;;;;;;;6.13;3.53;;;16.80;81.70;;;;;;5074585;28;20520;-67
2022/06/07 01:15:45;;;;;;;6.20;3.67;;;16.70;82.10;;;;;;5075037;28;20437;-67
2022/06/07 01:18:12;;;;;;;7.70;3.13;;;16.70;82.50;;;;;;5075283;28;20486;-67
2022/06/07 01:20:40;;;;;;;10.53;3.50;;;16.70;83.10;;;;;;5075182;28;20464;-67
2022/06/07 01:23:08;;;;;;;6.90;3.40;;;16.70;83.40;;;;;;5074811;28;20443;-67
2022/06/07 01:25:35;;;;;;;6.90;2.70;;;16.70;83.70;;;;;;5074356;28;20801;-67
2022/06/07 01:28:01;;;;;;;7.63;3.40;;;16.60;83.70;;;;;;5074492;28;20965;-67
2022/06/07 01:30:28;;;;;;;8.77;3.50;;;16.70;84.10;;;;;;5074105;28;20827;-68
2022/06/07 01:32:56;;;;;;;9.40;3.73;;;16.70;84.50;;;;;;5074436;28;20436;-67
2022/06/07 01:35:23;;;;;;;7.87;3.30;;;16.60;85.10;;;;;;5073320;28;20480;-67
2022/06/07 01:37:50;;;;;;;11.47;4.37;;;16.70;85.90;;;;;;5073557;28;20451;-67
2022/06/07 01:43:02;;;;;;;8.47;3.33;;;16.60;86.20;;;;;;5073379;28;20527;-67
2022/06/07 01:45:29;;;;;;;7.90;2.60;;;16.50;86.20;;;;;;5073585;28;20441;-67
2022/06/07 01:47:56;;;;;;;7.67;2.83;;;16.50;86.90;;;;;;5073554;28;20448;-67
2022/06/07 01:50:22;;;;;;;5.70;3.00;;;16.50;87.40;;;;;;5073451;28;20563;-68
2022/06/07 01:52:49;;;;;;;5.70;2.90;;;16.50;87.20;;;;;;5073119;28;20445;-67
2022/06/07 01:55:17;;;;;;;6.70;2.83;;;16.50;87.10;;;;;;5073390;28;20486;-67
2022/06/07 01:57:44;;;;;;;5.90;3.03;;;16.50;87.10;;;;;;5073642;28;20451;-67
2022/06/07 02:00:13;;;;;;;4.37;2.80;;;16.50;86.50;;;;;;5073299;28;20816;-68
2022/06/07 02:02:40;;;;;;;8.83;3.30;;;16.50;86.50;;;;;;5073547;28;20424;-68
2022/06/07 02:05:07;;;;;;;6.20;2.70;;;16.50;86.10;;;;;;5073017;28;20485;-67
2022/06/07 02:07:33;;;;;;;9.07;3.53;;;16.40;86.20;;;;;;5073341;28;20444;-67
2022/06/07 02:10:00;;;;;;;7.70;2.60;;;16.40;86.50;;;;;;5073337;28;20455;-67
2022/06/07 02:12:29;;;;;;;4.63;2.57;;;16.40;87.20;;;;;;5073302;28;20448;-67
2022/06/07 02:14:55;;;;;;;10.53;3.30;;;16.40;86.90;;;;;;5073162;28;20485;-67
2022/06/07 02:17:22;;;;;;;3.70;2.77;;;16.40;87.10;;;;;;5072967;28;20453;-67
2022/06/07 02:19:49;;;;;;;7.40;3.33;;;16.40;86.90;;;;;;5073307;28;20457;-67
2022/06/07 02:22:16;;;;;;;6.83;2.83;;;16.40;87.00;;;;;;5073217;28;20444;-67
2022/06/07 02:24:42;;;;;;;9.50;2.90;;;16.30;86.90;;;;;;5073278;28;20440;-67
2022/06/07 02:27:13;;;;;;;5.07;3.30;;;16.30;86.80;;;;;;5073406;28;20444;-67
2022/06/07 02:29:44;;;;;;;5.53;2.90;;;16.40;87.20;;;;;;5073414;28;20452;-67
2022/06/07 02:32:16;;;;;;;7.03;3.50;;;16.40;87.00;;;;;;5073325;28;20440;-67
2022/06/07 02:34:47;;;;;;;6.10;2.80;;;16.40;86.80;;;;;;5073168;28;20480;-67
2022/06/07 02:37:15;;;;;;;4.37;2.70;;;16.40;86.80;;;;;;5073137;28;20429;-67
2022/06/07 02:39:43;;;;;;;9.17;3.13;;;16.40;86.40;;;;;;5073044;28;20471;-67
2022/06/07 02:42:13;;;;;;;5.40;3.10;;;16.40;86.30;;;;;;5073021;28;20452;-67
2022/06/07 02:44:41;;;;;;;9.67;3.13;;;16.30;86.50;;;;;;5073004;28;20461;-67
2022/06/07 02:47:08;;;;;;;4.10;2.60;;;16.30;86.80;;;;;;5072956;28;20440;-67
2022/06/07 02:49:35;;;;;;;8.37;3.20;;;16.30;86.90;;;;;;5072949;28;20444;-68
2022/06/07 02:52:02;;;;;;;7.37;2.80;;;16.30;86.90;;;;;;5072867;28;20469;-68
2022/06/07 02:54:29;;;;;;;6.60;3.43;;;16.30;86.50;;;;;;5072903;28;20487;-68
2022/06/07 02:56:56;;;;;;;6.63;2.70;;;16.30;86.20;;;;;;5072907;28;20445;-67
2022/06/07 02:59:23;;;;;;;7.07;2.70;;;16.30;86.40;;;;;;5072871;28;20472;-68
2022/06/07 03:01:51;;;;;;;7.00;2.50;;;16.30;86.20;;;;;;5072798;28;20464;-67
2022/06/07 03:04:18;;;;;;;5.50;2.77;;;16.30;86.40;;;;;;5072648;28;20445;-67
2022/06/07 03:06:45;;;;;;;9.17;3.33;;;16.20;86.50;;;;;;5075755;28;20447;-67
2022/06/07 03:09:12;;;;;;;8.47;2.97;;;16.20;86.30;;;;;;5076432;28;20444;-67
2022/06/07 03:11:38;;;;;;;5.90;3.47;;;16.20;87.30;;;;;;5076226;28;20831;-69
2022/06/07 03:14:06;;;;;;;4.80;2.73;;;16.20;86.40;;;;;;5076136;28;20440;-70
2022/06/07 03:16:33;;;;;;;7.00;2.53;;;16.20;86.80;;;;;;5076702;28;20455;-70
2022/06/07 03:19:01;;;;;;;7.70;2.67;;;16.10;86.20;;;;;;5076180;28;20448;-70
2022/06/07 03:21:29;;;;;;;4.17;2.60;;;16.20;86.30;;;;;;5075982;28;20469;-69
2022/06/07 03:23:56;;;;;;;5.23;2.40;;;16.20;86.30;;;;;;5076073;28;20480;-69
2022/06/07 03:26:24;;;;;;;6.10;2.60;;;16.10;86.40;;;;;;5076034;28;20498;-69
2022/06/07 03:28:51;;;;;;;7.40;3.07;;;16.10;86.30;;;;;;5075983;28;20815;-69
2022/06/07 03:31:19;;;;;;;6.03;2.53;;;16.00;86.70;;;;;;5076063;28;20468;-69
2022/06/07 03:33:47;;;;;;;2.73;2.33;;;16.00;86.90;;;;;;5075575;28;20459;-69
2022/06/07 03:36:19;;;;;;;6.03;2.50;;;16.00;87.10;;;;;;5075479;28;20465;-69
2022/06/07 03:38:46;;;;;;;3.53;2.43;;;16.00;87.30;;;;;;5075870;28;20437;-69
2022/06/07 03:41:17;;;;;;;9.80;3.00;;;16.00;87.70;;;;;;5075456;28;20479;-69
2022/06/07 03:43:44;;;;;;;4.90;2.40;;;16.00;87.50;;;;;;5076188;28;20439;-69
2022/06/07 03:46:13;;;;;;;5.43;2.60;;;16.00;87.30;;;;;;5075962;28;20445;-70
2022/06/07 03:48:40;;;;;;;6.07;3.07;;;16.00;87.00;;;;;;5075334;28;20938;-70
2022/06/07 03:51:08;;;;;;;5.10;2.70;;;16.00;86.90;;;;;;5075589;28;20480;-70
2022/06/07 03:53:36;;;;;;;5.70;2.33;;;16.00;86.90;;;;;;5075277;28;20942;-69
2022/06/07 03:56:03;;;;;;;5.80;2.53;;;16.00;86.90;;;;;;5075207;28;20480;-69
2022/06/07 03:58:30;;;;;;;7.77;2.50;;;16.10;86.80;;;;;;5075265;28;20476;-70
2022/06/07 04:00:59;;;;;;;7.80;2.40;;;16.10;87.00;;;;;;5075750;28;20499;-68
2022/06/07 04:03:26;;;;;;;10.40;2.83;;;16.10;86.50;;;;;;5076689;28;20948;-69
2022/06/07 04:05:53;;;;;;;5.00;2.57;;;16.10;86.70;;;;;;5076908;28;20999;-66
2022/06/07 04:08:21;;;;;;;4.43;2.00;;;16.10;86.70;;;;;;5077103;28;20956;-66
2022/06/07 04:10:51;;;;;;;4.53;2.70;;;16.10;86.20;;;;;;5074860;28;20514;-66
2022/06/07 04:13:20;;;;;;;10.03;3.83;;;16.10;86.60;;;;;;5075126;28;20445;-67
2022/06/07 04:15:46;;;;;;;4.67;2.13;;;16.10;86.30;;;;;;5074772;28;20473;-67
2022/06/07 04:18:13;;;;;;;5.87;2.43;;;16.10;86.80;;;;;;5074994;28;20456;-67
2022/06/07 04:20:40;;;;;;;5.93;2.40;;;16.10;87.10;;;;;;5074899;28;20464;-67
2022/06/07 04:23:08;;;;;;;5.20;2.37;;;16.10;87.60;;;;;;5074928;28;20449;-67
2022/06/07 04:25:36;;;;;;;3.53;2.70;;;16.20;88.20;;;;;;5074874;28;20440;-67
2022/06/07 04:28:05;;;;;;;4.77;2.17;;;16.20;88.40;;;;;;5074821;28;20456;-67
2022/06/07 04:30:32;;;;;;;3.60;2.33;;;16.20;88.70;;;;;;5074643;28;20468;-67
2022/06/07 04:32:59;;;;;;;2.60;2.40;;;16.30;89.10;;;;;;5074995;28;20433;-67
2022/06/07 04:35:27;;;;;;;9.53;2.23;;;16.30;89.10;;;;;;5074501;28;20488;-67
2022/06/07 04:37:55;;;;;;;7.17;2.60;;;16.30;88.20;;;;;;5074638;28;20449;-67
2022/06/07 04:40:21;;;;;;;5.53;2.70;;;16.40;88.10;;;;;;5074160;28;20469;-67
2022/06/07 04:42:48;;;;;;;4.50;2.20;;;16.40;87.20;;;;;;5074185;28;20796;-67
2022/06/07 04:45:17;;;;;;;4.40;2.00;;;16.40;87.40;;;;;;5074514;28;20448;-69
2022/06/07 04:47:45;;;;;;;3.87;1.80;;;16.40;87.10;;;;;;5074459;28;20445;-67
2022/06/07 04:50:14;;;;;;;6.47;2.40;;;16.40;87.30;;;;;;5074648;28;20472;-67
2022/06/07 04:52:40;;;;;;;5.23;2.00;;;16.50;87.90;;;;;;5074496;28;20489;-67
2022/06/07 04:55:17;;;;;;;5.57;1.87;;;16.60;88.20;;;;;;5074539;28;20820;-69
2022/06/07 04:57:44;;;;;;;3.33;2.00;;;16.50;86.90;;;;;;5074340;28;20430;-69
2022/06/07 05:00:15;;;;;;;3.40;2.30;;;16.60;87.10;;;;;;5074331;28;20467;-69
2022/06/07 05:02:44;;;;;;;7.03;2.63;;;16.60;86.80;;;;;;5074830;28;20902;-69
2022/06/07 05:05:11;;;;;;;4.23;2.00;;;16.60;87.60;;;;;;5074109;28;20451;-69
2022/06/07 05:07:38;;;;;;;3.80;1.63;;;16.60;88.00;;;;;;5073995;28;20535;-69
2022/06/07 05:10:08;;;;;;;7.23;2.70;;;16.70;87.80;;;;;;5073586;28;20465;-69
2022/06/07 05:12:35;;;;;;;6.03;2.23;;;16.70;87.30;;;;;;5074098;28;20455;-68
2022/06/07 05:15:02;;;;;;;2.47;1.73;;;16.70;87.70;;;;;;5074205;28;20488;-68
2022/06/07 05:17:30;;;;;;;4.73;2.23;;;16.70;87.60;;;;;;5074034;28;20460;-68
2022/06/07 05:19:58;;;;;;;3.30;2.17;;;16.70;87.40;;;;;;5073856;28;20506;-68
2022/06/07 05:22:27;;;;;;;4.50;2.53;;;16.70;87.30;;;;;;5073843;28;20455;-68
2022/06/07 05:24:54;;;;;;;3.47;1.73;;;16.70;87.90;;;;;;5073448;28;20930;-67
2022/06/07 05:27:23;;;;;;;7.10;2.53;;;16.70;88.30;;;;;;5073638;28;20444;-67
2022/06/07 05:29:51;;;;;;;8.00;2.23;;;16.80;88.00;;;;;;5073405;28;20441;-68
2022/06/07 05:32:18;;;;;;;4.60;1.80;;;16.80;87.90;;;;;;5073754;28;20523;-67
2022/06/07 05:34:46;;;;;;;9.30;2.30;;;16.80;87.30;;;;;;5073159;28;20460;-67
2022/06/07 05:37:18;;;;;;;3.20;1.60;;;16.90;87.10;;;;;;5073647;28;20926;-67
2022/06/07 05:39:45;;;;;;;7.13;2.20;;;16.90;87.00;;;;;;5073847;28;20424;-68
2022/06/07 05:42:13;;;;;;;4.80;2.43;;;17.00;87.20;;;;;;5073640;28;20444;-68
2022/06/07 05:44:40;;;;;;;4.60;1.87;;;17.10;87.70;;;;;;5073664;28;20455;-67
2022/06/07 05:47:08;;;;;;;5.80;1.90;;;17.20;87.80;;;;;;5073308;28;20814;-67
2022/06/07 05:49:35;;;;;;;9.07;2.20;;;17.30;87.30;;;;;;5073568;28;20450;-67
2022/06/07 05:52:02;;;;;;;4.47;2.03;;;17.40;87.10;;;;;;5073460;28;20475;-67
2022/06/07 05:54:31;;;;;;;3.17;2.00;;;17.50;86.70;;;;;;5073465;28;20452;-67
2022/06/07 05:56:58;;;;;;;4.40;2.13;;;17.60;85.60;;;;;;5073356;28;20491;-67
2022/06/07 05:59:25;;;;;;;5.70;1.63;;;17.70;85.20;;;;;;5073504;28;20436;-68
2022/06/07 06:01:52;;;;;;;9.73;1.93;;;17.70;84.30;;;;;;5073015;28;20996;-67
2022/06/07 06:04:19;;;;;;;9.17;3.00;;;17.80;84.30;;;;;;5073327;28;20471;-67
2022/06/07 06:06:46;;;;;;;4.13;1.93;;;18.00;84.70;;;;;;5073093;28;20934;-67
2022/06/07 06:11:59;;;;;;;1.73;1.23;;;18.10;82.20;;;;;;5073303;28;20969;-67
2022/06/07 06:14:26;;;;;;;2.13;1.43;;;18.20;81.30;;;;;;5072997;28;21011;-67
2022/06/07 06:16:52;;;;;;;1.70;1.57;;;18.20;79.40;;;;;;5072823;28;20476;-67
2022/06/07 06:19:20;;;;;;;3.27;1.80;;;18.40;80.70;;;;;;5072956;28;20532;-67
2022/06/07 06:21:47;;;;;;;2.83;1.80;;;18.50;80.20;;;;;;5073388;28;20487;-67
2022/06/07 06:24:15;;;;;;;2.63;1.23;;;18.70;79.00;;;;;;5073008;28;21033;-67
2022/06/07 06:26:43;;;;;;;2.50;1.50;;;18.80;78.60;;;;;;5073200;28;20498;-67
2022/06/07 06:29:12;;;;;;;3.67;1.40;;;18.70;76.90;;;;;;5072871;28;20445;-67
2022/06/07 06:31:40;;;;;;;2.10;1.83;;;18.80;77.70;;;;;;5073054;28;20518;-70
2022/06/07 06:34:07;;;;;;;2.40;1.80;;;18.80;78.60;;;;;;5072839;28;20981;-69
2022/06/07 06:36:34;;;;;;;2.00;1.50;;;18.90;78.90;;;;;;5073093;28;20468;-69
2022/06/07 06:39:01;;;;;;;2.20;1.30;;;19.00;77.90;;;;;;5073116;28;20929;-69
2022/06/07 06:41:30;;;;;;;3.40;1.37;;;19.20;76.90;;;;;;5077133;28;20464;-69
2022/06/07 06:43:58;;;;;;;2.00;1.20;;;19.30;77.90;;;;;;5078019;28;20444;-67
2022/06/07 06:46:29;;;;;;;6.70;1.70;;;19.30;74.80;;;;;;5078556;28;20444;-67
2022/06/07 06:48:56;;;;;;;5.53;1.47;;;19.40;75.50;;;;;;5078392;28;20436;-67
2022/06/07 06:51:25;;;;;;;2.93;1.30;;;19.40;74.40;;;;;;5076647;28;20465;-68
2022/06/07 06:53:52;;;;;;;4.23;1.73;;;19.40;74.90;;;;;;5076593;28;20441;-67
2022/06/07 06:56:22;;;;;;;3.60;1.30;;;19.40;73.80;;;;;;5076479;28;20480;-67
2022/06/07 06:58:49;;;;;;;3.30;1.50;;;19.40;73.30;;;;;;5076198;28;20942;-68
2022/06/07 07:01:18;;;;;;;3.80;1.50;;;19.40;73.10;;;;;;5076333;28;20905;-68
2022/06/07 07:03:47;;;;;;;4.17;1.80;;;19.50;74.10;;;;;;5076491;28;20425;-66
2022/06/07 07:06:15;;;;;;;2.40;1.30;;;19.50;71.20;;;;;;5076109;28;20445;-66
2022/06/07 07:08:44;;;;;;;9.60;1.20;;;19.70;74.30;;;;;;5076034;28;20816;-66
2022/06/07 07:11:14;;;;;;;3.17;1.50;;;19.80;70.80;;;;;;5076388;28;20464;-67
2022/06/07 07:13:42;;;;;;;3.13;1.30;;;19.70;70.10;;;;;;5076246;28;20443;-68
2022/06/07 07:16:11;;;;;;;4.27;1.70;;;19.70;71.40;;;;;;5076154;28;20484;-68
2022/06/07 07:18:37;;;;;;;3.13;1.70;;;19.60;69.50;;;;;;5076243;28;20443;-68
2022/06/07 07:21:08;;;;;;;5.03;1.80;;;19.50;70.50;;;;;;5076036;28;20460;-68
2022/06/07 07:23:35;;;;;;;3.60;1.40;;;19.40;72.50;;;;;;5076163;28;20440;-68
2022/06/07 07:26:03;;;;;;;2.93;2.00;;;19.40;71.00;;;;;;5076323;28;20440;-68
2022/06/07 07:28:30;;;;;;;6.80;1.30;;;19.30;71.20;;;;;;5075942;28;20445;-68
2022/06/07 07:31:01;;;;;;;2.77;1.20;;;19.30;71.40;;;;;;5075913;28;20533;-68
2022/06/07 07:33:28;;;;;;;4.67;1.73;;;19.40;72.80;;;;;;5075931;28;20452;-68
2022/06/07 07:35:56;;;;;;;5.23;1.40;;;19.30;71.00;;;;;;5075414;28;20993;-68
2022/06/07 07:38:24;;;;;;;1.93;1.40;;;19.30;72.00;;;;;;5075814;28;20488;-68
2022/06/07 07:40:51;;;;;;;3.60;1.60;;;19.40;71.10;;;;;;5075707;28;20469;-68
2022/06/07 07:43:19;;;;;;;2.57;1.23;;;19.50;72.60;;;;;;5075735;28;20445;-68
2022/06/07 07:45:46;;;;;;;3.47;1.50;;;19.70;70.90;;;;;;5075772;28;20433;-66
2022/06/07 07:48:13;;;;;;;1.70;1.40;;;19.90;68.90;;;;;;5075665;28;20449;-66
2022/06/07 07:50:40;;;;;;;6.10;1.67;;;20.00;68.10;;;;;;5075163;28;20473;-66
2022/06/07 07:53:07;;;;;;;1.53;1.00;;;20.20;68.90;;;;;;5075576;28;20445;-66
2022/06/07 07:55:36;;;;;;;5.13;1.70;;;20.50;68.70;;;;;;5075494;28;20452;-66
2022/06/07 07:58:03;;;;;;;2.60;1.30;;;20.80;65.10;;;;;;5075428;28;20453;-66
2022/06/07 08:00:31;;;;;;;2.00;1.40;;;21.00;62.60;;;;;;5081812;28;21019;-67
2022/06/07 08:02:57;;;;;;;2.90;1.70;;;21.20;60.30;;;;;;5095122;28;20487;-66
2022/06/07 08:05:24;;;;;;;3.80;1.20;;;21.20;60.60;;;;;;5095671;28;20443;-66
2022/06/07 08:07:51;;;;;;;2.10;1.33;;;21.30;60.30;;;;;;5095549;28;20455;-66
2022/06/07 08:10:18;;;;;;;5.13;1.57;;;21.50;60.90;;;;;;5095353;28;20510;-66
2022/06/07 08:12:46;;;;;;;5.27;1.50;;;21.60;59.40;;;;;;5095447;28;20455;-66
2022/06/07 08:15:15;;;;;;;2.20;1.20;;;21.60;58.00;;;;;;5095382;28;20536;-66
2022/06/07 08:17:42;;;;;;;1.63;1.23;;;21.60;58.40;;;;;;5095196;28;20576;-66
2022/06/07 08:20:11;;;;;;;4.63;1.30;;;21.60;59.70;;;;;;5094938;28;20508;-66
2022/06/07 08:22:37;;;;;;;4.03;2.00;;;21.60;59.80;;;;;;5095296;28;20463;-66
2022/06/07 08:25:05;;;;;;;2.70;1.17;;;21.60;57.10;;;;;;5095178;28;20474;-66
2022/06/07 08:27:31;;;;;;;9.80;1.57;;;21.50;56.30;;;;;;5095136;28;20436;-66
2022/06/07 08:30:00;;;;;;;3.53;1.53;;;21.50;57.60;;;;;;5095341;28;20448;-66
2022/06/07 08:32:26;;;;;;;3.73;1.43;;;21.40;58.00;;;;;;5095038;28;20443;-66
2022/06/07 08:37:40;;;;;;;3.40;1.17;;;21.50;58.20;;;;;;5095059;28;20556;-65
2022/06/07 08:40:12;;;;;;;2.40;1.00;;;21.50;57.50;;;;;;5094896;28;20464;-66
2022/06/07 08:42:48;;;;;;;2.90;1.30;;;21.60;58.80;;;;;;5095635;28;20526;-66
2022/06/07 08:45:20;;;;;;;2.50;1.20;;;21.80;62.20;;;;;;5094792;28;20431;-66
2022/06/07 08:47:50;;;;;;;5.23;1.10;;;22.10;59.00;;;;;;5094695;28;20420;-66
2022/06/07 08:50:21;;;;;;;2.33;1.10;;;22.30;57.90;;;;;;5094649;28;20472;-66
2022/06/07 08:52:52;;;;;;;4.47;1.30;;;22.50;56.90;;;;;;5094713;28;20501;-66
2022/06/07 08:55:22;;;;;;;3.20;1.37;;;22.60;57.30;;;;;;5094383;28;20436;-66
2022/06/07 08:57:55;;;;;;;3.77;1.30;;;22.80;56.10;;;;;;5094274;28;20960;-66
2022/06/07 09:00:26;;;;;;;2.87;1.03;;;22.90;55.90;;;;;;5094736;28;20467;-66
2022/06/07 09:03:23;;;;;;;3.87;0.97;;;23.00;55.40;;;;;;5093559;28;20435;-66
2022/06/07 09:05:54;;;;;;;3.80;1.40;;;22.90;54.90;;;;;;5087300;28;20452;-66
2022/06/07 09:08:20;;;;;;;2.73;1.20;;;22.70;54.90;;;;;;5094384;28;20440;-66
2022/06/07 09:13:35;;;;;;;3.17;1.30;;;22.70;55.90;;;;;;5094500;28;20465;-66
2022/06/07 09:16:05;;;;;;;4.93;1.10;;;22.80;56.10;;;;;;5094352;28;20483;-66
2022/06/07 09:18:33;;;;;;;2.33;1.10;;;22.90;54.80;;;;;;5095075;28;20443;-66
2022/06/07 09:21:03;;;;;;;2.27;1.20;;;23.00;54.80;;;;;;5095322;28;20484;-66
2022/06/07 09:23:32;;;;;;;2.40;1.17;;;23.20;56.00;;;;;;5096237;28;20435;-66
2022/06/07 09:26:14;;;;;;;2.70;1.40;;;23.40;54.70;;;;;;5095045;28;20439;-67
2022/06/07 09:28:41;;;;;;;4.23;1.23;;;23.50;54.00;;;;;;5094012;28;20431;-67
2022/06/07 09:31:12;;;;;;;3.77;1.30;;;23.70;53.40;;;;;;5093915;28;20479;-67
2022/06/07 09:33:50;;;;;;;4.50;1.20;;;24.10;53.10;;;;;;5094130;28;20447;-67
2022/06/07 09:36:20;;;;;;;3.53;1.20;;;24.30;53.40;;;;;;5094159;28;20464;-67
2022/06/07 09:38:50;;;;;;;2.60;1.30;;;24.50;50.90;;;;;;5094185;28;20443;-67
2022/06/07 09:41:40;;;;;;;4.80;0.97;;;24.50;51.60;;;;;;5093793;28;20463;-67
2022/06/07 09:44:15;;;;;;;6.37;1.17;;;24.50;51.30;;;;;;5093819;28;20443;-67
2022/06/07 09:46:47;;;;;;;2.87;1.00;;;24.50;50.20;;;;;;5093832;28;20432;-67
2022/06/07 09:49:35;;;;;;;1.80;1.00;;;24.60;51.10;;;;;;5093460;28;20810;-67
2022/06/07 09:52:17;;;;;;;1.33;1.03;;;24.80;49.90;;;;;;5093670;28;20471;-67
2022/06/07 09:54:47;;;;;;;4.40;1.00;;;24.90;51.00;;;;;;5093417;28;21000;-67
2022/06/07 09:57:33;;;;;;;3.57;1.10;;;25.20;50.60;;;;;;5093557;28;20479;-67
2022/06/07 10:00:22;;;;;;;3.17;1.30;;;25.40;48.40;;;;;;5094262;28;20432;-67
2022/06/07 10:03:12;;;;;;;3.67;1.40;;;25.60;49.70;;;;;;5090703;28;20839;-67
2022/06/07 10:05:45;;;;;;;9.27;1.17;;;25.70;48.30;;;;;;5093632;28;20443;-66
2022/06/07 10:08:37;;;;;;;2.50;1.00;;;25.60;47.60;;;;;;5093630;28;20427;-66
2022/06/07 10:11:15;;;;;;;2.60;1.00;;;25.30;48.60;;;;;;5093412;28;20472;-66
2022/06/07 10:13:53;;;;;;;4.57;1.20;;;25.00;49.40;;;;;;5093603;28;20807;-66
2022/06/07 10:16:30;;;;;;;6.73;1.30;;;24.90;49.50;;;;;;5097586;28;20471;-66
2022/06/07 10:19:12;;;;;;;2.67;1.00;;;25.00;49.70;;;;;;5097700;28;20442;-67
2022/06/07 10:22:02;;;;;;;2.20;1.00;;;25.20;51.10;;;;;;5097526;28;21008;-67
2022/06/07 10:24:39;;;;;;;3.37;1.27;;;25.50;49.60;;;;;;5097326;28;20481;-67
2022/06/07 10:27:16;;;;;;;1.63;1.00;;;25.80;47.80;;;;;;5097318;28;20905;-67
2022/06/07 10:30:05;;;;;;;6.53;1.30;;;25.80;46.90;;;;;;5097580;28;20436;-67
2022/06/07 10:32:40;;;;;;;5.13;1.33;;;26.00;47.70;;;;;;5097101;28;20802;-67
2022/06/07 10:35:18;;;;;;;2.83;1.37;;;26.10;47.10;;;;;;5096962;28;20863;-67
2022/06/07 10:37:59;;;;;;;2.90;1.10;;;26.30;47.70;;;;;;5097298;28;20463;-67
2022/06/07 10:40:35;;;;;;;1.03;0.87;;;26.60;45.70;;;;;;5097499;28;20478;-67
2022/06/07 10:43:11;;;;;;;2.07;1.40;;;26.70;46.30;;;;;;5097193;28;20465;-68
2022/06/07 10:45:40;;;;;;;6.83;1.50;;;26.80;46.10;;;;;;5097121;28;20438;-67
2022/06/07 10:48:13;;;;;;;2.80;1.20;;;26.80;45.90;;;;;;5097037;28;20443;-67
2022/06/07 10:50:48;;;;;;;2.63;1.20;;;27.00;47.30;;;;;;5097011;28;20517;-67
2022/06/07 10:53:19;;;;;;;1.77;1.00;;;27.30;45.00;;;;;;5097010;28;20431;-67
2022/06/07 10:55:51;;;;;;;3.73;1.33;;;27.60;44.10;;;;;;5096903;28;20435;-67
2022/06/07 10:58:33;;;;;;;3.10;1.20;;;27.90;42.90;;;;;;5096874;28;20470;-67
2022/06/07 11:01:07;;;;;;;2.23;1.03;;;28.00;42.10;;;;;;5097038;28;20522;-67
2022/06/07 11:03:47;;;;;;;1.90;1.33;;;28.00;43.80;;;;;;5096765;28;20489;-67
2022/06/07 11:09:22;;;;;;;3.83;1.67;;;27.30;43.90;;;;;;5096711;28;20404;-67
2022/06/07 11:11:51;;;;;;;3.50;1.60;;;27.10;45.50;;;;;;5096587;28;20471;-67
2022/06/07 11:14:34;;;;;;;5.40;1.30;;;26.70;45.90;;;;;;5096286;28;20448;-67
2022/06/07 11:17:12;;;;;;;2.33;1.30;;;26.50;44.90;;;;;;5096496;28;20456;-67
2022/06/07 11:19:39;;;;;;;3.03;1.10;;;26.40;46.60;;;;;;5096654;28;20446;-68
2022/06/07 11:22:16;;;;;;;4.33;1.73;;;26.40;46.70;;;;;;5096517;28;20468;-68
2022/06/07 11:24:55;;;;;;;1.67;1.00;;;26.10;46.30;;;;;;5096499;28;20436;-68
2022/06/07 11:27:23;;;;;;;3.50;1.50;;;25.80;47.60;;;;;;5095256;28;20803;-68
2022/06/07 11:30:28;;;;;;;1.77;1.00;;;25.40;49.30;;;;;;5096110;28;20458;-68
2022/06/07 11:32:57;;;;;;;6.10;1.70;;;25.10;50.70;;;;;;5096308;28;20439;-68
2022/06/07 11:35:51;;;;;;;4.23;1.23;;;24.90;51.60;;;;;;5095859;28;20831;-68
2022/06/07 11:38:35;;;;;;;4.33;1.90;;;24.70;51.80;;;;;;5095716;28;20479;-68
2022/06/07 11:41:52;;;;;;;4.70;1.50;;;24.50;51.50;;;;;;5096124;28;20468;-68
2022/06/07 11:44:36;;;;;;;1.90;1.20;;;24.40;52.70;;;;;;5078432;28;20530;-68
2022/06/07 11:47:23;;;;;;;4.73;2.53;;;24.20;53.80;;;;;;5095951;28;20459;-69
2022/06/07 11:50:04;;;;;;;3.20;2.00;;;24.00;52.90;;;;;;5096254;28;20430;-68
2022/06/07 11:52:34;;;;;;;4.67;2.30;;;23.60;53.60;;;;;;5096173;28;20492;-69
2022/06/07 11:55:13;;;;;;;3.43;1.80;;;23.50;54.70;;;;;;5097016;28;20439;-69
2022/06/07 11:57:42;;;;;;;3.23;1.87;;;23.20;55.90;;;;;;5097734;28;20463;-69
2022/06/07 12:00:44;;;;;;;4.57;2.37;;;23.10;56.30;;;;;;5097732;28;20467;-68
2022/06/07 12:03:31;;;;;;;5.80;2.03;;;22.90;58.50;;;;;;5053066;28;20428;-69
2022/06/07 12:06:21;;;;;;;7.10;1.70;;;22.70;60.00;;;;;;5053242;28;20453;-69
2022/06/07 12:09:06;;;;;;;3.60;1.20;;;22.70;61.30;;;;;;5085200;28;20446;-69
2022/06/07 12:11:42;;;;;;;2.50;1.87;;;22.70;59.60;;;;;;5095442;28;20520;-68
2022/06/07 12:14:34;;;;;;;1.50;1.40;;;22.70;59.60;;;;;;5095496;28;20438;-68
2022/06/07 12:17:03;;;;;;;9.00;2.37;;;22.90;60.40;;;;;;5093521;28;20490;-69
2022/06/07 12:19:32;;;;;;;4.00;1.73;;;23.00;59.80;;;;;;5095374;28;20459;-69
2022/06/07 12:22:11;;;;;;;7.97;2.30;;;23.10;60.70;;;;;;5095243;28;20460;-68
2022/06/07 12:24:42;;;;;;;2.13;1.93;;;23.30;59.70;;;;;;5095360;28;20527;-69
2022/06/07 12:27:22;;;;;;;4.47;2.00;;;23.40;59.20;;;;;;5095661;28;20909;-69
2022/06/07 12:29:49;;;;;;;5.27;2.53;;;23.70;62.00;;;;;;5094721;28;20899;-69
2022/06/07 12:32:20;;;;;;;3.70;2.53;;;23.80;59.70;;;;;;5095048;28;20454;-69
2022/06/07 12:34:46;;;;;;;4.73;2.90;;;24.00;61.00;;;;;;5094782;28;20463;-69
2022/06/07 12:37:25;;;;;;;4.93;2.60;;;24.00;60.40;;;;;;5094654;28;20569;-69
2022/06/07 12:39:53;;;;;;;7.57;2.87;;;24.00;60.60;;;;;;5094846;28;20439;-68
2022/06/07 12:42:23;;;;;;;2.73;2.53;;;23.90;60.80;;;;;;5094830;28;20447;-68
2022/06/07 12:44:54;;;;;;;3.93;3.43;;;23.80;63.90;;;;;;5094584;28;20948;-69
2022/06/07 12:47:24;;;;;;;4.03;3.30;;;23.60;65.10;;;;;;5094444;28;20427;-69
2022/06/07 12:49:52;;;;;;;2.73;2.43;;;23.30;68.20;;;;;;5094875;28;20454;-68
2022/06/07 12:52:20;;;;;;;4.40;2.20;;;23.20;69.80;;;;;;5094732;28;20536;-69
2022/06/07 12:54:49;;;;;;;3.00;2.20;;;23.00;70.30;;;;;;5094750;28;20447;-69
2022/06/07 12:57:23;;;;;;;3.80;2.73;;;22.80;71.30;;;;;;5094308;28;21000;-69
2022/06/07 12:59:55;;;;;;;3.67;3.17;;;22.70;74.20;;;;;;5094694;28;20424;-68
2022/06/07 13:02:24;;;;;;;3.53;3.23;;;22.70;76.10;;;;;;5094599;28;20435;-69
2022/06/07 13:04:56;;;;;;;4.13;3.17;;;22.80;77.90;;;;;;5094748;28;20493;-69
2022/06/07 13:07:24;;;;;;;3.60;3.30;;;22.90;79.60;;;;;;5094432;28;20478;-69
2022/06/07 13:09:55;;;;;;;3.97;3.67;;;23.20;80.60;;;;;;5094306;28;20444;-68
2022/06/07 13:12:26;;;;;;;4.70;3.57;;;23.40;78.70;;;;;;5094391;28;20432;-68
2022/06/07 13:14:54;;;;;;;4.13;3.70;;;23.50;77.40;;;;;;5094323;28;20447;-69
2022/06/07 13:17:31;;;;;;;6.67;3.70;;;23.60;77.30;;;;;;5093807;28;21002;-69
2022/06/07 13:19:58;;;;;;;3.40;3.10;;;23.80;76.30;;;;;;5094153;28;20446;-68